Time;durP1;ratioP1;P1;durP2;ratioP2;P2;SDS_P1;SDS_P2;PMS_P1;PMS_P2;Temp;Humidity;BMP_temperature;BMP_pressure;BME280_temperature;BME280_humidity;BME280_pressure;Samples;Min_cycle;Max_cycle;Signal;HPM_P1;HPM_P2
2022/07/23 00:01:47;;;;;;;11.63;10.40;;;20.40;98.90;;;;;;5034001;28;20207;-38
2022/07/23 00:04:17;;;;;;;12.15;10.40;;;20.40;98.90;;;;;;5035659;28;20705;-39
2022/07/23 00:06:44;;;;;;;10.80;9.70;;;20.40;98.90;;;;;;5035008;28;20757;-42
2022/07/23 00:09:16;;;;;;;11.32;10.23;;;20.40;98.90;;;;;;5042659;28;20208;-43
2022/07/23 00:11:45;;;;;;;11.00;9.77;;;20.30;98.90;;;;;;5038929;28;20267;-44
2022/07/23 00:14:15;;;;;;;11.15;9.95;;;20.30;98.90;;;;;;5027335;28;20213;-43
2022/07/23 00:16:43;;;;;;;12.80;10.50;;;20.30;98.90;;;;;;5028523;28;20616;-43
2022/07/23 00:19:13;;;;;;;13.65;11.13;;;20.30;98.90;;;;;;5029253;28;20282;-43
2022/07/23 00:21:40;;;;;;;12.30;10.05;;;20.20;98.90;;;;;;5055832;28;20211;-43
2022/07/23 00:24:07;;;;;;;11.40;10.10;;;20.20;98.90;;;;;;5037658;28;20233;-44
2022/07/23 00:26:37;;;;;;;11.48;10.27;;;20.20;98.90;;;;;;5031717;28;20247;-44
2022/07/23 00:29:04;;;;;;;14.10;11.63;;;20.20;98.80;;;;;;5037212;28;20213;-44
2022/07/23 00:31:34;;;;;;;11.32;10.02;;;20.20;98.80;;;;;;5027108;28;20299;-44
2022/07/23 00:34:03;;;;;;;12.60;11.15;;;20.20;98.90;;;;;;5038160;28;20200;-44
2022/07/23 00:36:31;;;;;;;11.73;10.57;;;20.10;98.90;;;;;;5028843;28;20211;-44
2022/07/23 00:39:00;;;;;;;14.35;11.88;;;20.10;98.90;;;;;;5028587;28;20197;-43
2022/07/23 00:41:31;;;;;;;14.07;11.32;;;20.10;99.00;;;;;;5027400;28;20240;-44
2022/07/23 00:44:18;;;;;;;13.93;11.65;;;20.10;98.90;;;;;;5039254;28;20581;-43
2022/07/23 00:46:48;;;;;;;13.30;11.90;;;20.00;99.00;;;;;;5039072;28;20228;-43
2022/07/23 00:49:17;;;;;;;13.27;11.63;;;20.00;98.90;;;;;;5039041;28;20706;-44
2022/07/23 00:51:45;;;;;;;12.88;11.50;;;20.00;99.00;;;;;;5027889;28;20295;-44
2022/07/23 00:54:14;;;;;;;12.93;11.63;;;20.00;99.00;;;;;;5039191;28;20218;-44
2022/07/23 00:56:44;;;;;;;13.35;11.95;;;20.00;98.90;;;;;;5044468;28;20201;-44
2022/07/23 00:59:14;;;;;;;13.45;11.48;;;19.90;98.80;;;;;;5040120;28;20307;-44
2022/07/23 01:01:41;;;;;;;13.25;11.95;;;19.90;98.90;;;;;;5031553;28;20635;-44
2022/07/23 01:04:11;;;;;;;13.07;11.52;;;19.90;98.80;;;;;;5027855;28;20201;-44
2022/07/23 01:06:38;;;;;;;12.93;11.45;;;19.90;98.90;;;;;;5029673;28;20687;-44
2022/07/23 01:09:09;;;;;;;13.75;12.35;;;19.90;98.90;;;;;;5028787;28;20212;-44
2022/07/23 01:11:39;;;;;;;14.73;12.57;;;19.90;99.00;;;;;;5029494;28;20203;-45
2022/07/23 01:14:09;;;;;;;15.75;11.93;;;19.90;99.00;;;;;;5036256;28;20311;-45
2022/07/23 01:16:37;;;;;;;12.98;11.52;;;19.80;98.90;;;;;;5029821;28;20224;-45
2022/07/23 01:19:06;;;;;;;13.85;12.43;;;19.80;99.20;;;;;;5029965;28;20219;-45
2022/07/23 01:21:41;;;;;;;14.25;11.77;;;19.80;98.90;;;;;;5049058;28;20200;-44
2022/07/23 01:24:10;;;;;;;14.43;11.70;;;19.80;98.90;;;;;;5028800;28;20200;-44
2022/07/23 01:26:38;;;;;;;14.30;12.82;;;19.80;99.00;;;;;;5030892;28;20203;-44
2022/07/23 01:29:10;;;;;;;13.68;12.13;;;19.80;99.10;;;;;;5030806;28;20193;-44
2022/07/23 01:31:41;;;;;;;14.90;12.90;;;19.70;99.10;;;;;;5041453;28;20325;-39
2022/07/23 01:34:09;;;;;;;16.63;13.45;;;19.80;99.00;;;;;;5035003;28;20211;-39
2022/07/23 01:36:37;;;;;;;15.60;12.75;;;19.70;98.90;;;;;;5028577;28;20227;-44
2022/07/23 01:39:07;;;;;;;15.70;12.48;;;19.70;99.00;;;;;;5033166;28;20192;-44
2022/07/23 01:41:36;;;;;;;14.23;12.77;;;19.60;99.10;;;;;;5028067;28;20262;-44
2022/07/23 01:44:06;;;;;;;14.15;12.65;;;19.60;99.10;;;;;;5045694;28;20666;-44
2022/07/23 01:46:33;;;;;;;13.90;12.50;;;19.60;99.10;;;;;;5061428;28;20198;-44
2022/07/23 01:49:00;;;;;;;14.73;13.23;;;19.60;99.20;;;;;;5050027;28;20348;-44
2022/07/23 01:51:31;;;;;;;14.23;12.73;;;19.60;99.20;;;;;;5045074;28;20197;-45
2022/07/23 01:53:58;;;;;;;14.75;12.80;;;19.50;99.10;;;;;;5044676;28;20537;-44
2022/07/23 01:56:29;;;;;;;15.20;13.17;;;19.60;99.10;;;;;;5046542;28;20201;-44
2022/07/23 01:58:59;;;;;;;16.88;12.82;;;19.50;99.10;;;;;;5064750;28;20711;-44
2022/07/23 02:01:27;;;;;;;13.73;12.27;;;19.50;99.10;;;;;;5044739;28;20216;-44
2022/07/23 02:03:59;;;;;;;16.80;13.00;;;19.50;99.20;;;;;;5051809;28;20208;-44
2022/07/23 02:06:31;;;;;;;13.75;12.35;;;19.40;99.10;;;;;;5066019;28;20588;-44
2022/07/23 02:08:58;;;;;;;14.13;12.63;;;19.40;99.20;;;;;;5030932;28;20275;-44
2022/07/23 02:11:26;;;;;;;13.90;12.60;;;19.40;99.20;;;;;;5031001;28;20201;-43
2022/07/23 02:13:56;;;;;;;13.65;12.35;;;19.40;99.30;;;;;;5031364;28;20216;-44
2022/07/23 02:16:23;;;;;;;14.48;12.48;;;19.30;99.20;;;;;;5030813;28;20212;-44
2022/07/23 02:18:50;;;;;;;13.93;12.40;;;19.30;99.30;;;;;;5031423;28;20246;-39
2022/07/23 02:21:18;;;;;;;14.43;12.10;;;19.30;99.30;;;;;;5034834;28;20294;-44
2022/07/23 02:23:47;;;;;;;16.20;12.38;;;19.30;99.30;;;;;;5060253;28;20673;-39
2022/07/23 02:26:17;;;;;;;14.77;13.05;;;19.30;99.40;;;;;;5031453;28;20221;-39
2022/07/23 02:28:47;;;;;;;16.07;12.30;;;19.20;99.40;;;;;;5047830;28;20230;-39
2022/07/23 02:31:14;;;;;;;14.35;12.73;;;19.20;99.50;;;;;;5046927;28;20619;-39
2022/07/23 02:33:41;;;;;;;14.52;12.35;;;19.20;99.50;;;;;;5051641;28;20686;-39
2022/07/23 02:36:09;;;;;;;13.90;12.43;;;19.20;99.50;;;;;;5051323;28;20521;-39
2022/07/23 02:38:36;;;;;;;13.75;11.35;;;19.10;99.40;;;;;;5050707;28;20219;-39
2022/07/23 02:41:03;;;;;;;14.55;12.98;;;19.10;99.40;;;;;;5034195;28;21054;-39
2022/07/23 02:43:30;;;;;;;13.82;12.32;;;19.00;99.40;;;;;;5034708;28;20233;-39
2022/07/23 02:46:00;;;;;;;17.52;12.43;;;19.00;99.30;;;;;;5030804;28;20204;-39
2022/07/23 02:48:28;;;;;;;14.90;12.60;;;19.00;99.40;;;;;;5034948;28;20220;-39
2022/07/23 02:50:56;;;;;;;14.52;13.05;;;19.00;99.50;;;;;;5038503;28;20284;-38
2022/07/23 02:53:23;;;;;;;16.92;12.13;;;19.00;99.40;;;;;;5031479;28;20200;-43
2022/07/23 02:55:51;;;;;;;13.95;12.18;;;19.00;99.40;;;;;;5031266;28;20611;-39
2022/07/23 02:58:21;;;;;;;15.50;11.75;;;19.00;99.40;;;;;;5056414;28;20578;-38
2022/07/23 03:00:50;;;;;;;16.05;12.18;;;19.00;99.50;;;;;;5038122;28;20739;-44
2022/07/23 03:03:20;;;;;;;14.20;12.32;;;18.90;99.50;;;;;;5046198;28;20200;-43
2022/07/23 03:05:48;;;;;;;14.55;12.52;;;18.90;99.50;;;;;;5034553;28;20237;-43
2022/07/23 03:08:15;;;;;;;14.40;12.98;;;18.90;99.60;;;;;;5029046;28;20221;-43
2022/07/23 03:10:42;;;;;;;14.05;12.57;;;18.90;99.70;;;;;;5031502;28;20204;-43
2022/07/23 03:13:09;;;;;;;16.20;12.13;;;18.90;99.70;;;;;;5030630;28;20197;-43
2022/07/23 03:15:37;;;;;;;13.50;12.10;;;18.90;99.70;;;;;;5031332;28;20217;-44
2022/07/23 03:18:08;;;;;;;15.02;13.38;;;18.90;99.70;;;;;;5031642;28;20223;-43
2022/07/23 03:20:38;;;;;;;17.03;13.53;;;18.80;99.70;;;;;;5037232;28;20208;-43
2022/07/23 03:23:08;;;;;;;14.15;12.38;;;18.80;99.70;;;;;;5030583;28;20205;-43
2022/07/23 03:25:40;;;;;;;13.77;12.13;;;18.80;99.70;;;;;;5030557;28;20251;-43
2022/07/23 03:28:07;;;;;;;14.52;12.80;;;18.70;99.70;;;;;;5030307;28;20260;-40
2022/07/23 03:30:34;;;;;;;14.88;12.73;;;18.70;99.70;;;;;;5032109;28;20199;-39
2022/07/23 03:33:04;;;;;;;14.57;13.02;;;18.70;99.70;;;;;;5030139;28;20216;-39
2022/07/23 03:35:31;;;;;;;14.65;13.05;;;18.60;99.60;;;;;;5032628;28;20225;-39
2022/07/23 03:37:59;;;;;;;13.95;12.40;;;18.60;99.70;;;;;;5030015;28;20247;-39
2022/07/23 03:40:29;;;;;;;14.68;13.15;;;18.60;99.70;;;;;;5031837;28;20296;-39
2022/07/23 03:42:56;;;;;;;14.77;12.30;;;18.60;99.70;;;;;;5030468;28;20225;-39
2022/07/23 03:45:23;;;;;;;14.77;12.73;;;18.60;99.70;;;;;;5030338;28;20300;-39
2022/07/23 03:47:53;;;;;;;14.63;12.60;;;18.60;99.70;;;;;;5029249;28;20708;-38
2022/07/23 03:50:23;;;;;;;13.82;12.13;;;18.60;99.70;;;;;;5034875;28;20300;-39
2022/07/23 03:52:53;;;;;;;14.63;12.68;;;18.50;99.70;;;;;;5039494;28;20695;-39
2022/07/23 03:55:23;;;;;;;14.02;12.63;;;18.50;99.80;;;;;;5050006;28;20303;-39
2022/07/23 03:57:53;;;;;;;14.80;12.93;;;18.50;99.80;;;;;;5047769;28;20292;-39
2022/07/23 04:00:22;;;;;;;14.18;12.73;;;18.40;99.70;;;;;;5037592;28;20223;-43
2022/07/23 04:02:51;;;;;;;15.23;12.32;;;18.40;99.80;;;;;;5048122;28;20257;-43
2022/07/23 04:05:21;;;;;;;14.57;13.07;;;18.40;99.80;;;;;;5048568;28;20211;-43
2022/07/23 04:07:48;;;;;;;15.25;13.10;;;18.40;99.80;;;;;;5042287;28;20474;-43
2022/07/23 04:10:15;;;;;;;16.60;13.15;;;18.40;99.90;;;;;;5039186;28;20959;-43
2022/07/23 04:12:42;;;;;;;13.70;12.40;;;18.40;99.90;;;;;;5049453;28;20200;-43
2022/07/23 04:15:10;;;;;;;14.43;12.82;;;18.40;99.90;;;;;;5043196;28;20228;-43
2022/07/23 04:17:43;;;;;;;14.63;13.10;;;18.40;99.90;;;;;;5029606;28;20649;-44
2022/07/23 04:20:11;;;;;;;15.17;13.13;;;18.40;99.90;;;;;;5039073;28;20212;-43
2022/07/23 04:22:38;;;;;;;15.13;13.50;;;18.40;99.90;;;;;;5048670;28;20211;-43
2022/07/23 04:25:08;;;;;;;14.55;12.75;;;18.50;99.90;;;;;;5028970;28;20200;-43
2022/07/23 04:27:36;;;;;;;14.03;12.57;;;18.40;99.90;;;;;;5029300;28;20225;-44
2022/07/23 04:30:06;;;;;;;13.35;11.63;;;18.40;99.90;;;;;;5030683;28;20193;-43
2022/07/23 04:32:35;;;;;;;14.30;12.73;;;18.40;99.90;;;;;;5027368;28;20215;-43
2022/07/23 04:35:03;;;;;;;15.60;12.67;;;18.50;99.90;;;;;;5035838;28;20196;-46
2022/07/23 04:37:30;;;;;;;14.57;13.07;;;18.40;99.80;;;;;;5048728;28;20209;-44
2022/07/23 04:39:57;;;;;;;14.20;12.70;;;18.50;99.90;;;;;;5040909;28;20196;-44
2022/07/23 04:42:27;;;;;;;14.25;12.43;;;18.50;99.80;;;;;;5029241;28;20196;-44
2022/07/23 04:44:58;;;;;;;14.38;12.18;;;18.50;99.90;;;;;;5046387;28;20239;-43
2022/07/23 04:47:29;;;;;;;13.98;12.50;;;18.50;99.90;;;;;;5046924;28;20227;-44
2022/07/23 04:50:03;;;;;;;16.43;12.97;;;18.50;99.80;;;;;;5043137;28;20225;-39
2022/07/23 04:52:30;;;;;;;14.20;12.70;;;18.50;99.90;;;;;;5047372;28;20226;-39
2022/07/23 04:54:57;;;;;;;14.20;12.67;;;18.60;99.90;;;;;;5045099;28;20208;-39
2022/07/23 04:57:27;;;;;;;15.68;12.35;;;18.50;99.90;;;;;;5038806;28;20201;-39
2022/07/23 04:59:54;;;;;;;14.88;13.13;;;18.50;99.90;;;;;;5034122;28;20304;-39
2022/07/23 05:02:21;;;;;;;15.25;12.77;;;18.50;99.90;;;;;;5047499;28;20624;-40
2022/07/23 05:04:49;;;;;;;15.98;12.52;;;18.50;99.90;;;;;;5034362;28;20239;-39
2022/07/23 05:07:16;;;;;;;14.98;12.75;;;18.60;99.90;;;;;;5041023;28;20713;-39
2022/07/23 05:09:46;;;;;;;13.48;12.15;;;18.60;99.90;;;;;;5031421;28;20219;-39
2022/07/23 05:12:21;;;;;;;17.33;12.85;;;18.60;99.90;;;;;;5030293;28;20699;-39
2022/07/23 05:14:51;;;;;;;14.07;12.57;;;18.60;99.90;;;;;;5029259;28;20291;-39
2022/07/23 05:17:25;;;;;;;14.25;12.52;;;18.60;99.90;;;;;;5032882;28;20192;-39
2022/07/23 05:19:53;;;;;;;16.07;12.53;;;18.70;99.90;;;;;;5034380;28;20255;-39
2022/07/23 05:22:29;;;;;;;14.27;12.10;;;18.70;99.90;;;;;;5030653;28;20221;-39
2022/07/23 05:24:56;;;;;;;15.25;12.73;;;18.70;99.90;;;;;;5034495;28;20200;-39
2022/07/23 05:27:23;;;;;;;13.93;11.88;;;18.80;99.90;;;;;;5038549;28;20684;-39
2022/07/23 05:29:50;;;;;;;15.93;12.25;;;18.80;99.90;;;;;;5035539;28;20240;-39
2022/07/23 05:32:20;;;;;;;14.02;12.52;;;18.80;99.90;;;;;;5034460;28;20205;-39
2022/07/23 05:34:47;;;;;;;15.10;12.73;;;18.80;99.90;;;;;;5037985;28;20229;-39
2022/07/23 05:37:16;;;;;;;14.77;11.70;;;18.80;99.90;;;;;;5028010;28;20244;-39
2022/07/23 05:39:48;;;;;;;14.45;11.48;;;18.80;99.90;;;;;;5029442;28;20232;-43
2022/07/23 05:42:16;;;;;;;15.38;11.82;;;18.80;99.90;;;;;;5028211;28;20228;-43
2022/07/23 05:44:43;;;;;;;13.80;12.40;;;18.80;99.90;;;;;;5029513;28;20197;-43
2022/07/23 05:47:10;;;;;;;13.38;11.63;;;18.90;99.90;;;;;;5028901;28;20215;-43
2022/07/23 05:49:38;;;;;;;13.30;10.65;;;18.90;99.90;;;;;;5032959;28;20216;-43
2022/07/23 05:52:06;;;;;;;12.98;11.68;;;18.90;99.90;;;;;;5035248;28;20621;-39
2022/07/23 05:54:35;;;;;;;13.02;11.13;;;19.00;99.90;;;;;;5040190;28;20201;-40
2022/07/23 05:57:05;;;;;;;12.88;11.57;;;19.00;99.90;;;;;;5045267;28;20214;-42
2022/07/23 05:59:32;;;;;;;13.95;11.15;;;19.10;99.90;;;;;;5050783;28;20232;-43
2022/07/23 06:02:01;;;;;;;12.90;11.67;;;19.10;99.90;;;;;;5033101;28;20296;-43
2022/07/23 06:04:29;;;;;;;12.02;10.27;;;19.20;99.90;;;;;;5030376;28;20742;-44
2022/07/23 06:06:58;;;;;;;12.63;10.38;;;19.20;99.90;;;;;;5032213;28;20212;-38
2022/07/23 06:09:25;;;;;;;14.57;10.75;;;19.30;99.90;;;;;;5042030;28;20220;-38
2022/07/23 06:11:53;;;;;;;12.10;10.77;;;19.30;99.90;;;;;;5041831;28;20205;-38
2022/07/23 06:14:20;;;;;;;12.07;10.88;;;19.40;99.90;;;;;;5038761;28;20208;-38
2022/07/23 06:16:49;;;;;;;13.88;10.95;;;19.50;99.90;;;;;;5044156;28;20200;-38
2022/07/23 06:19:22;;;;;;;12.23;11.00;;;19.50;99.90;;;;;;5044292;28;20255;-38
2022/07/23 06:21:51;;;;;;;12.65;11.45;;;19.50;99.90;;;;;;5041794;28;20217;-38
2022/07/23 06:24:19;;;;;;;14.35;11.43;;;19.60;99.90;;;;;;5031790;28;20265;-38
2022/07/23 06:26:46;;;;;;;12.88;11.57;;;19.60;99.90;;;;;;5034763;28;20362;-43
2022/07/23 06:29:13;;;;;;;13.30;12.00;;;19.60;99.90;;;;;;5042437;28;20260;-43
2022/07/23 06:31:42;;;;;;;13.20;11.20;;;19.70;99.90;;;;;;5036543;28;20663;-38
2022/07/23 06:34:14;;;;;;;16.73;12.02;;;19.80;99.90;;;;;;5037924;28;20262;-39
2022/07/23 06:36:41;;;;;;;14.98;11.98;;;19.80;99.90;;;;;;5033029;28;20671;-39
2022/07/23 06:39:16;;;;;;;12.95;10.90;;;19.80;99.90;;;;;;5045690;28;20213;-44
2022/07/23 06:41:47;;;;;;;14.30;10.82;;;19.90;99.90;;;;;;5028647;28;20224;-44
2022/07/23 06:44:17;;;;;;;14.45;11.45;;;19.90;99.90;;;;;;5038041;28;20213;-42
2022/07/23 06:46:47;;;;;;;12.50;11.20;;;19.90;99.90;;;;;;5030319;28;20810;-43
2022/07/23 06:49:17;;;;;;;12.95;10.90;;;20.00;99.90;;;;;;5027543;28;20239;-43
2022/07/23 06:51:49;;;;;;;12.60;10.63;;;20.00;99.90;;;;;;5024535;28;20197;-45
2022/07/23 06:54:19;;;;;;;12.43;11.23;;;20.10;99.90;;;;;;5027389;28;20245;-42
2022/07/23 06:56:46;;;;;;;12.88;11.20;;;20.10;99.90;;;;;;5024323;28;20334;-45
2022/07/23 06:59:13;;;;;;;14.68;10.75;;;20.10;99.90;;;;;;5022888;28;20407;-45
2022/07/23 07:01:41;;;;;;;12.40;11.02;;;20.10;99.90;;;;;;5027595;28;20265;-45
2022/07/23 07:04:10;;;;;;;12.80;11.48;;;20.20;99.90;;;;;;5025251;28;20282;-45
2022/07/23 07:06:42;;;;;;;14.40;11.32;;;20.20;99.90;;;;;;5023562;28;20217;-44
2022/07/23 07:09:12;;;;;;;14.25;11.35;;;20.20;99.90;;;;;;5030979;28;20249;-44
2022/07/23 07:11:42;;;;;;;11.68;10.57;;;20.30;99.90;;;;;;5027429;28;20201;-44
2022/07/23 07:14:11;;;;;;;11.45;10.35;;;20.30;99.90;;;;;;5029913;28;20215;-44
2022/07/23 07:16:41;;;;;;;11.52;10.32;;;20.30;99.90;;;;;;5030472;28;20295;-44
2022/07/23 07:19:09;;;;;;;12.50;11.25;;;20.40;99.90;;;;;;5043106;28;20224;-44
2022/07/23 07:21:36;;;;;;;11.25;10.15;;;20.40;99.90;;;;;;5044850;28;20250;-45
2022/07/23 07:24:04;;;;;;;12.07;10.77;;;20.50;99.90;;;;;;5038172;28;22052;-43
2022/07/23 07:26:31;;;;;;;12.68;10.48;;;20.50;99.90;;;;;;5034742;28;20200;-45
2022/07/23 07:28:58;;;;;;;10.80;9.55;;;20.50;99.90;;;;;;5045970;28;20220;-45
2022/07/23 07:31:30;;;;;;;10.23;8.80;;;20.50;99.90;;;;;;5037264;28;20204;-43
2022/07/23 07:34:03;;;;;;;14.25;10.25;;;20.60;99.90;;;;;;5041378;28;20196;-44
2022/07/23 07:36:38;;;;;;;11.52;10.25;;;20.70;99.90;;;;;;5036482;28;20193;-45
2022/07/23 07:39:10;;;;;;;11.20;10.10;;;20.70;99.90;;;;;;5048904;28;20205;-45
2022/07/23 07:41:42;;;;;;;11.93;10.65;;;20.80;99.90;;;;;;5043128;28;20246;-44
2022/07/23 07:44:09;;;;;;;14.02;9.95;;;20.80;99.90;;;;;;5034338;28;20206;-44
2022/07/23 07:46:39;;;;;;;12.25;9.93;;;20.80;99.90;;;;;;5033360;28;20204;-44
2022/07/23 07:49:11;;;;;;;10.77;9.68;;;20.90;99.90;;;;;;5034337;28;20293;-44
2022/07/23 07:51:44;;;;;;;10.25;9.05;;;20.90;99.90;;;;;;5033818;28;20730;-39
2022/07/23 07:54:12;;;;;;;10.05;8.32;;;20.90;99.90;;;;;;5044855;28;20215;-39
2022/07/23 07:56:45;;;;;;;9.35;8.23;;;20.90;99.90;;;;;;5045302;28;20195;-39
2022/07/23 07:59:12;;;;;;;9.73;8.77;;;21.00;99.90;;;;;;5026192;28;20244;-39
2022/07/23 08:01:40;;;;;;;11.23;8.82;;;21.00;99.90;;;;;;5037294;28;20208;-39
2022/07/23 08:04:07;;;;;;;10.63;9.00;;;21.10;99.90;;;;;;5038829;28;20216;-39
2022/07/23 08:06:35;;;;;;;8.65;7.72;;;21.10;99.90;;;;;;5032245;28;20742;-39
2022/07/23 08:09:04;;;;;;;9.25;7.45;;;21.10;99.90;;;;;;5035486;28;20711;-39
2022/07/23 08:11:32;;;;;;;10.60;7.65;;;21.20;99.90;;;;;;5028515;28;20278;-44
2022/07/23 08:13:59;;;;;;;8.48;7.45;;;21.20;99.90;;;;;;5039167;28;20687;-40
2022/07/23 08:16:27;;;;;;;9.68;7.50;;;21.20;99.90;;;;;;5039013;28;20215;-39
2022/07/23 08:18:55;;;;;;;8.63;7.30;;;21.20;99.90;;;;;;5022042;28;20617;-39
2022/07/23 08:21:22;;;;;;;9.45;7.22;;;21.30;99.90;;;;;;5024487;28;20216;-39
2022/07/23 08:23:49;;;;;;;9.73;7.47;;;21.30;99.90;;;;;;5015503;28;20358;-39
2022/07/23 08:26:19;;;;;;;10.77;8.70;;;21.30;99.90;;;;;;5030193;28;20783;-39
2022/07/23 08:28:46;;;;;;;14.35;8.82;;;21.40;99.90;;;;;;5027624;28;20235;-39
2022/07/23 08:31:17;;;;;;;9.80;8.77;;;21.40;99.90;;;;;;5024583;28;20990;-44
2022/07/23 08:33:47;;;;;;;9.80;8.43;;;21.40;99.90;;;;;;5025703;28;20614;-44
2022/07/23 08:36:18;;;;;;;8.82;7.70;;;21.50;99.90;;;;;;5029110;28;20201;-44
2022/07/23 08:38:47;;;;;;;9.73;8.73;;;21.50;99.90;;;;;;5027420;28;20576;-45
2022/07/23 08:41:18;;;;;;;8.95;7.80;;;21.50;99.90;;;;;;5026821;28;20200;-44
2022/07/23 08:43:50;;;;;;;10.50;8.90;;;21.50;99.90;;;;;;5027398;28;20629;-43
2022/07/23 08:46:20;;;;;;;10.85;8.55;;;21.50;99.90;;;;;;5038422;28;20537;-44
2022/07/23 08:48:49;;;;;;;10.93;8.15;;;21.60;99.90;;;;;;5033279;28;20231;-44
2022/07/23 08:51:17;;;;;;;7.78;6.90;;;21.60;99.90;;;;;;5025452;28;20220;-39
2022/07/23 08:53:47;;;;;;;8.10;6.40;;;21.60;99.90;;;;;;5015179;28;20257;-38
2022/07/23 08:56:16;;;;;;;7.13;6.28;;;21.70;99.90;;;;;;5012045;28;20210;-38
2022/07/23 08:58:45;;;;;;;7.70;6.25;;;21.70;99.90;;;;;;5020801;28;20244;-39
2022/07/23 09:01:15;;;;;;;7.13;6.30;;;21.70;99.90;;;;;;5010678;28;20411;-39
2022/07/23 09:03:44;;;;;;;7.30;6.40;;;21.80;99.90;;;;;;5025504;28;20204;-37
2022/07/23 09:06:17;;;;;;;8.63;6.07;;;21.80;99.90;;;;;;5029595;28;20205;-38
2022/07/23 09:08:47;;;;;;;6.72;5.38;;;21.80;99.90;;;;;;5018761;28;20683;-38
2022/07/23 09:11:18;;;;;;;5.82;5.00;;;21.90;99.90;;;;;;5013965;28;20294;-37
2022/07/23 09:13:53;;;;;;;6.82;6.00;;;21.90;99.90;;;;;;5005065;28;20236;-39
2022/07/23 09:16:32;;;;;;;6.63;5.63;;;22.00;99.90;;;;;;4990799;28;20662;-38
2022/07/23 09:19:04;;;;;;;5.95;5.30;;;22.00;99.90;;;;;;4994397;28;20580;-37
2022/07/23 09:21:36;;;;;;;8.55;6.22;;;22.10;99.90;;;;;;5006997;28;20201;-38
2022/07/23 09:24:08;;;;;;;9.15;5.63;;;22.10;99.90;;;;;;5011522;28;20547;-38
2022/07/23 09:26:40;;;;;;;6.32;5.07;;;22.20;99.90;;;;;;5008778;28;20923;-37
2022/07/23 09:29:25;;;;;;;5.30;4.80;;;22.20;99.90;;;;;;5006690;28;20213;-37
2022/07/23 09:31:57;;;;;;;6.82;4.97;;;22.20;99.90;;;;;;5010784;28;20822;-38
2022/07/23 09:34:25;;;;;;;6.35;5.38;;;22.30;99.90;;;;;;5014313;28;22024;-41
2022/07/23 09:36:55;;;;;;;6.40;4.53;;;22.30;99.90;;;;;;5013297;28;20444;-38
2022/07/23 09:39:31;;;;;;;5.40;4.72;;;22.30;99.90;;;;;;5011626;28;20296;-38
2022/07/23 09:42:13;;;;;;;4.95;4.38;;;22.30;99.90;;;;;;5016312;28;20236;-38
2022/07/23 09:44:45;;;;;;;5.75;3.90;;;22.40;99.90;;;;;;5019185;28;20271;-38
2022/07/23 09:47:15;;;;;;;5.32;3.80;;;22.40;99.90;;;;;;5013153;28;20238;-38
2022/07/23 09:49:59;;;;;;;4.82;3.95;;;22.40;99.90;;;;;;5019581;28;20224;-38
2022/07/23 09:52:36;;;;;;;4.40;4.00;;;22.50;99.90;;;;;;5012592;28;20227;-37
2022/07/23 09:55:05;;;;;;;7.10;4.63;;;22.50;99.90;;;;;;5013509;28;20302;-37
2022/07/23 09:57:39;;;;;;;4.47;3.90;;;22.50;99.90;;;;;;5016798;28;20320;-38
2022/07/23 10:00:10;;;;;;;5.78;4.30;;;22.50;99.90;;;;;;5014054;28;20316;-38
2022/07/23 10:02:40;;;;;;;5.88;4.10;;;22.60;99.90;;;;;;5012066;28;20244;-38
2022/07/23 10:05:08;;;;;;;7.13;4.40;;;22.60;99.90;;;;;;5013036;28;20213;-38
2022/07/23 10:07:42;;;;;;;4.78;4.05;;;22.60;99.90;;;;;;5009472;28;20743;-42
2022/07/23 10:10:11;;;;;;;5.30;4.25;;;22.60;99.90;;;;;;5018089;28;20295;-42
2022/07/23 10:15:20;;;;;;;5.78;4.10;;;22.70;99.90;;;;;;5008924;28;20217;-42
2022/07/23 10:17:48;;;;;;;4.07;3.65;;;22.70;99.90;;;;;;5010685;28;20202;-43
2022/07/23 10:20:16;;;;;;;4.05;3.00;;;22.70;99.90;;;;;;5017978;28;20317;-43
2022/07/23 10:22:56;;;;;;;3.22;2.85;;;22.80;99.90;;;;;;5014636;28;20201;-43
2022/07/23 10:25:26;;;;;;;3.42;2.70;;;22.80;99.90;;;;;;5021666;28;20228;-43
2022/07/23 10:28:08;;;;;;;3.72;2.90;;;22.90;99.90;;;;;;5030699;28;20216;-43
2022/07/23 10:31:14;;;;;;;3.75;2.70;;;22.90;99.90;;;;;;5019807;28;20634;-43
2022/07/23 10:34:16;;;;;;;4.20;2.20;;;23.00;99.90;;;;;;5012022;28;20448;-43
2022/07/23 10:36:56;;;;;;;4.03;2.17;;;23.00;99.90;;;;;;5027051;28;20782;-42
2022/07/23 10:39:29;;;;;;;4.10;2.90;;;23.10;99.90;;;;;;5010804;28;20217;-42
2022/07/23 10:42:16;;;;;;;4.03;2.45;;;23.10;99.90;;;;;;5011743;28;20296;-43
2022/07/23 10:44:50;;;;;;;4.00;3.50;;;23.20;99.90;;;;;;5010975;28;20206;-44
2022/07/23 10:47:45;;;;;;;3.88;2.63;;;23.20;99.90;;;;;;5013470;28;20220;-44
2022/07/23 10:50:34;;;;;;;2.83;2.40;;;23.20;99.90;;;;;;5009923;28;20339;-44
2022/07/23 10:53:13;;;;;;;4.72;2.95;;;23.20;99.90;;;;;;5010952;28;20194;-44
2022/07/23 10:55:44;;;;;;;3.28;2.97;;;23.20;99.90;;;;;;5026375;28;20304;-44
2022/07/23 10:58:17;;;;;;;2.63;2.42;;;23.20;99.90;;;;;;5023687;28;20229;-44
2022/07/23 11:00:48;;;;;;;3.45;2.30;;;23.30;99.90;;;;;;5029334;28;20200;-43
2022/07/23 11:03:39;;;;;;;4.15;3.10;;;23.30;99.90;;;;;;5028978;28;20645;-44
2022/07/23 11:06:07;;;;;;;3.63;3.00;;;23.40;99.90;;;;;;5026609;28;20593;-44
2022/07/23 11:08:34;;;;;;;2.95;2.70;;;23.40;99.90;;;;;;5025549;28;20240;-44
2022/07/23 11:11:02;;;;;;;3.35;2.65;;;23.40;99.90;;;;;;5027180;28;20228;-44
2022/07/23 11:13:41;;;;;;;3.75;2.90;;;23.50;99.90;;;;;;5027947;28;20216;-44
2022/07/23 11:16:20;;;;;;;2.92;2.60;;;23.50;99.90;;;;;;5009468;28;20255;-44
2022/07/23 11:18:47;;;;;;;4.40;2.80;;;23.50;99.90;;;;;;5016812;28;20222;-44
2022/07/23 11:21:23;;;;;;;4.63;2.72;;;23.60;99.90;;;;;;5028487;28;20247;-44
2022/07/23 11:24:13;;;;;;;5.22;2.97;;;23.60;99.90;;;;;;5023820;28;20255;-44
2022/07/23 11:27:01;;;;;;;3.17;2.45;;;23.70;99.90;;;;;;5028161;28;20212;-43
2022/07/23 11:29:31;;;;;;;2.08;1.88;;;23.70;99.90;;;;;;5014058;28;20236;-44
2022/07/23 11:32:02;;;;;;;2.72;2.10;;;23.70;99.90;;;;;;5019497;28;20212;-44
2022/07/23 11:34:38;;;;;;;2.80;2.60;;;23.80;99.90;;;;;;5021033;28;20609;-44
2022/07/23 11:37:07;;;;;;;3.45;2.70;;;23.80;99.90;;;;;;5010370;28;20676;-44
2022/07/23 11:39:35;;;;;;;2.85;2.47;;;23.90;99.90;;;;;;5023165;28;20214;-44
2022/07/23 11:42:10;;;;;;;3.28;2.58;;;23.90;99.90;;;;;;5010437;28;20190;-44
2022/07/23 11:44:38;;;;;;;3.50;2.42;;;23.90;99.90;;;;;;5012537;28;20286;-44
2022/07/23 11:47:14;;;;;;;3.72;2.85;;;24.00;99.90;;;;;;5020017;28;20217;-42
2022/07/23 11:50:03;;;;;;;2.65;2.17;;;24.00;99.90;;;;;;5025817;28;20263;-43
2022/07/23 11:52:33;;;;;;;2.75;2.30;;;24.00;99.90;;;;;;5019108;28;20235;-46
2022/07/23 11:55:06;;;;;;;2.92;1.90;;;24.00;99.90;;;;;;5013177;28;20821;-42
2022/07/23 11:57:39;;;;;;;4.03;2.17;;;24.10;99.90;;;;;;5040620;28;20282;-46
2022/07/23 12:00:12;;;;;;;2.70;2.50;;;24.10;99.90;;;;;;5014899;28;20335;-44
2022/07/23 12:02:45;;;;;;;3.72;2.17;;;24.20;99.90;;;;;;5015010;28;20236;-44
2022/07/23 12:05:24;;;;;;;2.35;2.15;;;24.20;99.90;;;;;;5016454;28;20212;-44
2022/07/23 12:07:53;;;;;;;3.47;2.50;;;24.30;99.90;;;;;;5021140;28;20748;-42
2022/07/23 12:10:21;;;;;;;2.13;1.90;;;24.30;99.90;;;;;;5019347;28;20217;-35
2022/07/23 12:12:56;;;;;;;2.90;2.60;;;24.40;99.90;;;;;;5009052;28;20321;-34
2022/07/23 12:15:40;;;;;;;3.30;2.20;;;24.50;99.90;;;;;;5014645;28;20201;-34
2022/07/23 12:18:12;;;;;;;2.40;2.20;;;24.60;99.90;;;;;;5020136;28;20259;-34
2022/07/23 12:20:47;;;;;;;2.75;2.17;;;24.60;99.90;;;;;;5028069;28;20213;-34
2022/07/23 12:23:17;;;;;;;2.90;2.60;;;24.70;99.90;;;;;;5016348;28;20300;-35
2022/07/23 12:25:51;;;;;;;5.30;3.10;;;24.70;99.90;;;;;;4997537;28;20201;-35
2022/07/23 12:28:28;;;;;;;3.22;2.55;;;24.80;99.90;;;;;;5020883;28;20209;-35
2022/07/23 12:30:57;;;;;;;2.90;2.33;;;24.80;99.90;;;;;;5025189;28;20217;-34
2022/07/23 12:33:32;;;;;;;2.47;2.00;;;24.90;99.90;;;;;;5010063;28;20217;-34
2022/07/23 12:36:08;;;;;;;2.35;2.15;;;25.00;99.90;;;;;;5011624;28;20193;-36
2022/07/23 12:38:50;;;;;;;2.15;1.95;;;25.00;99.90;;;;;;5014806;28;20690;-37
2022/07/23 12:41:20;;;;;;;2.30;2.10;;;25.10;99.90;;;;;;5008199;28;20287;-37
2022/07/23 12:43:49;;;;;;;2.42;2.10;;;25.10;99.90;;;;;;5009323;28;20255;-36
2022/07/23 12:46:19;;;;;;;2.83;2.20;;;25.20;99.90;;;;;;5018123;28;20738;-38
2022/07/23 12:48:49;;;;;;;2.67;2.13;;;25.30;99.90;;;;;;5028808;28;20585;-38
2022/07/23 12:51:24;;;;;;;2.55;2.35;;;25.30;99.90;;;;;;5005384;28;20646;-38
2022/07/23 12:53:55;;;;;;;2.33;2.10;;;25.40;99.90;;;;;;5015792;28;20576;-36
2022/07/23 12:56:33;;;;;;;2.20;2.00;;;25.40;99.90;;;;;;5015769;28;20293;-34